sensor_id;sensor_type;location;lat;lon;timestamp;temperature;humidity
16172;DHT22;8192;53.596;10.166;2022-12-07T00:01:53;2.30;99.90
16172;DHT22;8192;53.596;10.166;2022-12-07T00:04:20;2.40;99.90
16172;DHT22;8192;53.596;10.166;2022-12-07T00:06:51;2.40;99.90
16172;DHT22;8192;53.596;10.166;2022-12-07T00:09:19;2.50;99.90
16172;DHT22;8192;53.596;10.166;2022-12-07T00:11:49;2.60;99.90
16172;DHT22;8192;53.596;10.166;2022-12-07T00:14:16;2.60;99.90
16172;DHT22;8192;53.596;10.166;2022-12-07T00:16:44;2.60;99.90
16172;DHT22;8192;53.596;10.166;2022-12-07T00:19:14;2.70;99.90
16172;DHT22;8192;53.596;10.166;2022-12-07T00:21:41;2.70;99.90
16172;DHT22;8192;53.596;10.166;2022-12-07T00:24:10;2.70;99.90
16172;DHT22;8192;53.596;10.166;2022-12-07T00:26:39;2.60;99.90
16172;DHT22;8192;53.596;10.166;2022-12-07T00:29:08;2.70;99.90
16172;DHT22;8192;53.596;10.166;2022-12-07T00:31:37;2.80;99.90
16172;DHT22;8192;53.596;10.166;2022-12-07T00:34:06;2.70;99.90
16172;DHT22;8192;53.596;10.166;2022-12-07T00:36:35;2.70;99.90
16172;DHT22;8192;53.596;10.166;2022-12-07T00:39:02;2.80;99.90
16172;DHT22;8192;53.596;10.166;2022-12-07T00:41:30;2.80;99.90
16172;DHT22;8192;53.596;10.166;2022-12-07T00:43:57;2.80;99.90
16172;DHT22;8192;53.596;10.166;2022-12-07T00:46:25;2.80;99.90
16172;DHT22;8192;53.596;10.166;2022-12-07T00:48:53;2.70;99.90
16172;DHT22;8192;53.596;10.166;2022-12-07T00:51:21;2.80;99.90
16172;DHT22;8192;53.596;10.166;2022-12-07T00:53:51;2.80;99.90
16172;DHT22;8192;53.596;10.166;2022-12-07T00:56:20;2.90;99.90
16172;DHT22;8192;53.596;10.166;2022-12-07T00:58:52;2.90;99.90
16172;DHT22;8192;53.596;10.166;2022-12-07T01:01:19;2.90;99.90
16172;DHT22;8192;53.596;10.166;2022-12-07T01:03:46;2.90;99.90
16172;DHT22;8192;53.596;10.166;2022-12-07T01:06:14;2.90;99.90
16172;DHT22;8192;53.596;10.166;2022-12-07T01:08:42;2.90;99.90
16172;DHT22;8192;53.596;10.166;2022-12-07T01:11:12;2.90;99.90
16172;DHT22;8192;53.596;10.166;2022-12-07T01:13:40;3.00;99.90
16172;DHT22;8192;53.596;10.166;2022-12-07T01:16:08;3.00;99.90
16172;DHT22;8192;53.596;10.166;2022-12-07T01:18:37;3.00;99.90
16172;DHT22;8192;53.596;10.166;2022-12-07T01:21:19;3.00;99.90
16172;DHT22;8192;53.596;10.166;2022-12-07T01:23:47;3.00;99.90
16172;DHT22;8192;53.596;10.166;2022-12-07T01:26:44;3.10;99.90
16172;DHT22;8192;53.596;10.166;2022-12-07T01:29:10;3.10;99.90
16172;DHT22;8192;53.596;10.166;2022-12-07T01:31:38;3.10;99.90
16172;DHT22;8192;53.596;10.166;2022-12-07T01:34:05;3.10;99.90
16172;DHT22;8192;53.596;10.166;2022-12-07T01:36:34;3.10;99.90
16172;DHT22;8192;53.596;10.166;2022-12-07T01:39:04;3.10;99.90
16172;DHT22;8192;53.596;10.166;2022-12-07T01:41:33;3.10;99.90
16172;DHT22;8192;53.596;10.166;2022-12-07T01:44:16;3.10;99.90
16172;DHT22;8192;53.596;10.166;2022-12-07T01:46:44;3.10;99.90
16172;DHT22;8192;53.596;10.166;2022-12-07T01:49:17;3.10;99.90
16172;DHT22;8192;53.596;10.166;2022-12-07T01:51:46;3.10;99.90
16172;DHT22;8192;53.596;10.166;2022-12-07T01:54:18;3.10;99.90
16172;DHT22;8192;53.596;10.166;2022-12-07T01:56:50;3.00;99.90
16172;DHT22;8192;53.596;10.166;2022-12-07T01:59:22;3.00;99.90
16172;DHT22;8192;53.596;10.166;2022-12-07T02:01:50;3.00;99.90
16172;DHT22;8192;53.596;10.166;2022-12-07T02:04:18;3.00;99.90
16172;DHT22;8192;53.596;10.166;2022-12-07T02:06:45;3.00;99.90
16172;DHT22;8192;53.596;10.166;2022-12-07T02:09:13;2.80;99.90
16172;DHT22;8192;53.596;10.166;2022-12-07T02:11:41;2.80;99.90
16172;DHT22;8192;53.596;10.166;2022-12-07T02:14:08;2.70;99.90
16172;DHT22;8192;53.596;10.166;2022-12-07T02:16:47;2.70;99.90
16172;DHT22;8192;53.596;10.166;2022-12-07T02:25:39;2.60;99.90
16172;DHT22;8192;53.596;10.166;2022-12-07T02:28:13;2.50;99.90
16172;DHT22;8192;53.596;10.166;2022-12-07T02:30:48;2.50;99.90
16172;DHT22;8192;53.596;10.166;2022-12-07T02:33:21;2.50;99.90
16172;DHT22;8192;53.596;10.166;2022-12-07T02:35:55;2.50;99.90
16172;DHT22;8192;53.596;10.166;2022-12-07T02:38:28;2.60;99.90
16172;DHT22;8192;53.596;10.166;2022-12-07T02:41:02;2.70;99.90
16172;DHT22;8192;53.596;10.166;2022-12-07T02:43:35;2.70;99.90
16172;DHT22;8192;53.596;10.166;2022-12-07T02:46:08;2.70;99.90
16172;DHT22;8192;53.596;10.166;2022-12-07T02:48:37;2.70;99.90
16172;DHT22;8192;53.596;10.166;2022-12-07T02:51:05;2.70;99.90
16172;DHT22;8192;53.596;10.166;2022-12-07T02:53:34;2.70;99.90
16172;DHT22;8192;53.596;10.166;2022-12-07T02:59:34;2.80;99.90
16172;DHT22;8192;53.596;10.166;2022-12-07T03:02:13;2.80;99.90
16172;DHT22;8192;53.596;10.166;2022-12-07T03:04:48;2.70;99.90
16172;DHT22;8192;53.596;10.166;2022-12-07T03:07:23;2.70;99.90
16172;DHT22;8192;53.596;10.166;2022-12-07T03:09:59;2.50;99.90
16172;DHT22;8192;53.596;10.166;2022-12-07T03:12:31;2.40;99.90
16172;DHT22;8192;53.596;10.166;2022-12-07T03:15:02;2.30;99.90
16172;DHT22;8192;53.596;10.166;2022-12-07T03:17:33;2.20;99.90
16172;DHT22;8192;53.596;10.166;2022-12-07T03:20:06;2.20;99.90
16172;DHT22;8192;53.596;10.166;2022-12-07T03:22:35;2.10;99.90
16172;DHT22;8192;53.596;10.166;2022-12-07T03:25:07;2.10;99.90
16172;DHT22;8192;53.596;10.166;2022-12-07T03:27:39;2.00;99.90
16172;DHT22;8192;53.596;10.166;2022-12-07T03:30:09;2.00;99.90
16172;DHT22;8192;53.596;10.166;2022-12-07T03:32:41;1.90;99.90
16172;DHT22;8192;53.596;10.166;2022-12-07T03:35:14;1.90;99.90
16172;DHT22;8192;53.596;10.166;2022-12-07T03:37:46;1.90;99.90
16172;DHT22;8192;53.596;10.166;2022-12-07T03:40:19;1.90;99.90
16172;DHT22;8192;53.596;10.166;2022-12-07T03:42:50;1.80;99.90
16172;DHT22;8192;53.596;10.166;2022-12-07T03:45:18;1.80;99.90
16172;DHT22;8192;53.596;10.166;2022-12-07T03:47:54;1.70;99.90
16172;DHT22;8192;53.596;10.166;2022-12-07T03:50:28;1.70;99.90
16172;DHT22;8192;53.596;10.166;2022-12-07T03:53:02;1.50;99.90
16172;DHT22;8192;53.596;10.166;2022-12-07T03:55:33;1.60;99.90
16172;DHT22;8192;53.596;10.166;2022-12-07T03:58:05;1.50;99.90
16172;DHT22;8192;53.596;10.166;2022-12-07T04:00:33;1.50;99.90
16172;DHT22;8192;53.596;10.166;2022-12-07T04:03:02;1.40;99.90
16172;DHT22;8192;53.596;10.166;2022-12-07T04:05:29;1.50;99.90
16172;DHT22;8192;53.596;10.166;2022-12-07T04:07:56;1.40;99.90
16172;DHT22;8192;53.596;10.166;2022-12-07T04:10:23;1.40;99.90
16172;DHT22;8192;53.596;10.166;2022-12-07T04:12:50;1.40;99.90
16172;DHT22;8192;53.596;10.166;2022-12-07T04:15:18;1.40;99.90
16172;DHT22;8192;53.596;10.166;2022-12-07T04:17:45;1.30;99.90
16172;DHT22;8192;53.596;10.166;2022-12-07T04:23:35;1.20;99.90
16172;DHT22;8192;53.596;10.166;2022-12-07T04:26:02;1.20;99.90
16172;DHT22;8192;53.596;10.166;2022-12-07T04:28:30;1.20;99.90
16172;DHT22;8192;53.596;10.166;2022-12-07T04:30:57;1.10;99.90
16172;DHT22;8192;53.596;10.166;2022-12-07T04:33:24;1.00;99.90
16172;DHT22;8192;53.596;10.166;2022-12-07T04:35:51;1.10;99.90
16172;DHT22;8192;53.596;10.166;2022-12-07T04:38:19;1.20;99.90
16172;DHT22;8192;53.596;10.166;2022-12-07T04:40:47;1.20;99.90
16172;DHT22;8192;53.596;10.166;2022-12-07T04:43:15;1.10;99.90
16172;DHT22;8192;53.596;10.166;2022-12-07T04:45:46;1.10;99.90
16172;DHT22;8192;53.596;10.166;2022-12-07T04:48:13;1.00;99.90
16172;DHT22;8192;53.596;10.166;2022-12-07T04:50:40;1.00;99.90
16172;DHT22;8192;53.596;10.166;2022-12-07T04:53:07;1.00;99.90
16172;DHT22;8192;53.596;10.166;2022-12-07T04:55:34;0.90;99.90
16172;DHT22;8192;53.596;10.166;2022-12-07T04:58:03;0.90;99.90
16172;DHT22;8192;53.596;10.166;2022-12-07T05:00:30;0.80;99.90
16172;DHT22;8192;53.596;10.166;2022-12-07T05:02:57;0.80;99.90
16172;DHT22;8192;53.596;10.166;2022-12-07T05:05:24;0.80;99.90
16172;DHT22;8192;53.596;10.166;2022-12-07T05:07:52;0.80;99.90
16172;DHT22;8192;53.596;10.166;2022-12-07T05:10:19;0.80;99.90
16172;DHT22;8192;53.596;10.166;2022-12-07T05:12:46;0.80;99.90
16172;DHT22;8192;53.596;10.166;2022-12-07T05:15:15;0.80;99.90
16172;DHT22;8192;53.596;10.166;2022-12-07T05:17:42;0.70;99.90
16172;DHT22;8192;53.596;10.166;2022-12-07T05:23:32;0.70;99.90
16172;DHT22;8192;53.596;10.166;2022-12-07T05:26:00;0.60;99.90
16172;DHT22;8192;53.596;10.166;2022-12-07T05:28:26;0.60;99.90
16172;DHT22;8192;53.596;10.166;2022-12-07T05:30:55;0.50;99.90
16172;DHT22;8192;53.596;10.166;2022-12-07T05:33:23;0.50;99.90
16172;DHT22;8192;53.596;10.166;2022-12-07T05:35:50;0.50;99.90
16172;DHT22;8192;53.596;10.166;2022-12-07T05:38:18;0.30;99.90
16172;DHT22;8192;53.596;10.166;2022-12-07T05:40:46;0.30;99.90
16172;DHT22;8192;53.596;10.166;2022-12-07T05:43:14;0.20;99.90
16172;DHT22;8192;53.596;10.166;2022-12-07T05:45:43;0.30;99.90
16172;DHT22;8192;53.596;10.166;2022-12-07T05:48:12;0.10;99.90
16172;DHT22;8192;53.596;10.166;2022-12-07T05:50:39;0.30;99.90
16172;DHT22;8192;53.596;10.166;2022-12-07T05:53:06;0.30;99.90
16172;DHT22;8192;53.596;10.166;2022-12-07T05:55:33;0.40;99.90
16172;DHT22;8192;53.596;10.166;2022-12-07T05:58:00;0.20;99.90
16172;DHT22;8192;53.596;10.166;2022-12-07T06:00:45;0.30;99.90
16172;DHT22;8192;53.596;10.166;2022-12-07T06:03:13;0.40;99.90
16172;DHT22;8192;53.596;10.166;2022-12-07T06:05:40;0.40;99.90
16172;DHT22;8192;53.596;10.166;2022-12-07T06:08:08;0.30;99.90
16172;DHT22;8192;53.596;10.166;2022-12-07T06:10:35;0.10;99.90
16172;DHT22;8192;53.596;10.166;2022-12-07T06:13:03;0.10;99.90
16172;DHT22;8192;53.596;10.166;2022-12-07T06:15:29;0.00;99.90
16172;DHT22;8192;53.596;10.166;2022-12-07T06:17:56;0.00;99.90
16172;DHT22;8192;53.596;10.166;2022-12-07T06:20:27;0.00;99.90
16172;DHT22;8192;53.596;10.166;2022-12-07T06:22:54;0.00;99.90
16172;DHT22;8192;53.596;10.166;2022-12-07T06:25:22;0.00;99.90
16172;DHT22;8192;53.596;10.166;2022-12-07T06:27:49;0.10;99.90
16172;DHT22;8192;53.596;10.166;2022-12-07T06:30:16;0.10;99.90
16172;DHT22;8192;53.596;10.166;2022-12-07T06:35:50;0.30;99.90
16172;DHT22;8192;53.596;10.166;2022-12-07T06:38:17;0.30;99.90
16172;DHT22;8192;53.596;10.166;2022-12-07T06:40:44;0.40;99.90
16172;DHT22;8192;53.596;10.166;2022-12-07T06:43:12;0.40;99.90
16172;DHT22;8192;53.596;10.166;2022-12-07T06:45:42;0.50;99.90
16172;DHT22;8192;53.596;10.166;2022-12-07T06:48:10;0.40;99.90
16172;DHT22;8192;53.596;10.166;2022-12-07T06:50:37;0.50;99.90
16172;DHT22;8192;53.596;10.166;2022-12-07T06:53:07;0.60;99.90
16172;DHT22;8192;53.596;10.166;2022-12-07T06:58:56;0.60;99.90
16172;DHT22;8192;53.596;10.166;2022-12-07T07:04:45;0.50;99.90
16172;DHT22;8192;53.596;10.166;2022-12-07T07:07:13;0.50;99.90
16172;DHT22;8192;53.596;10.166;2022-12-07T07:09:41;0.50;99.90
16172;DHT22;8192;53.596;10.166;2022-12-07T07:12:09;0.40;99.90
16172;DHT22;8192;53.596;10.166;2022-12-07T07:14:36;0.60;99.90
16172;DHT22;8192;53.596;10.166;2022-12-07T07:17:04;0.60;99.90
16172;DHT22;8192;53.596;10.166;2022-12-07T07:19:31;0.80;99.90
16172;DHT22;8192;53.596;10.166;2022-12-07T07:21:59;0.70;99.90
16172;DHT22;8192;53.596;10.166;2022-12-07T07:24:26;0.80;99.90
16172;DHT22;8192;53.596;10.166;2022-12-07T07:26:54;0.80;99.90
16172;DHT22;8192;53.596;10.166;2022-12-07T07:29:22;0.90;99.90
16172;DHT22;8192;53.596;10.166;2022-12-07T07:31:49;0.90;99.90
16172;DHT22;8192;53.596;10.166;2022-12-07T07:34:16;0.90;99.90
16172;DHT22;8192;53.596;10.166;2022-12-07T07:36:44;1.10;99.90
16172;DHT22;8192;53.596;10.166;2022-12-07T07:39:11;1.10;99.90
16172;DHT22;8192;53.596;10.166;2022-12-07T07:41:39;1.10;99.90
16172;DHT22;8192;53.596;10.166;2022-12-07T07:47:30;1.20;99.90
16172;DHT22;8192;53.596;10.166;2022-12-07T07:49:57;1.20;99.90
16172;DHT22;8192;53.596;10.166;2022-12-07T07:52:24;1.20;99.90
16172;DHT22;8192;53.596;10.166;2022-12-07T07:54:52;1.30;99.90
16172;DHT22;8192;53.596;10.166;2022-12-07T07:57:22;1.30;99.90
16172;DHT22;8192;53.596;10.166;2022-12-07T07:59:50;1.30;99.90
16172;DHT22;8192;53.596;10.166;2022-12-07T08:02:20;1.40;99.90
16172;DHT22;8192;53.596;10.166;2022-12-07T08:04:57;1.40;99.90
16172;DHT22;8192;53.596;10.166;2022-12-07T08:07:24;1.40;99.90
16172;DHT22;8192;53.596;10.166;2022-12-07T08:09:51;1.50;99.90
16172;DHT22;8192;53.596;10.166;2022-12-07T08:12:43;1.50;99.90
16172;DHT22;8192;53.596;10.166;2022-12-07T08:15:28;1.60;99.90
16172;DHT22;8192;53.596;10.166;2022-12-07T08:17:56;1.50;99.90
16172;DHT22;8192;53.596;10.166;2022-12-07T08:20:25;1.50;99.90
16172;DHT22;8192;53.596;10.166;2022-12-07T08:22:52;1.50;99.90
16172;DHT22;8192;53.596;10.166;2022-12-07T08:25:19;1.60;99.90
16172;DHT22;8192;53.596;10.166;2022-12-07T08:27:47;1.60;99.90
16172;DHT22;8192;53.596;10.166;2022-12-07T08:30:16;1.60;99.90
16172;DHT22;8192;53.596;10.166;2022-12-07T08:36:10;1.70;99.90
16172;DHT22;8192;53.596;10.166;2022-12-07T08:38:38;1.70;99.90
16172;DHT22;8192;53.596;10.166;2022-12-07T08:41:07;1.80;99.90
16172;DHT22;8192;53.596;10.166;2022-12-07T08:43:35;1.80;99.90
16172;DHT22;8192;53.596;10.166;2022-12-07T08:46:06;1.80;99.90
16172;DHT22;8192;53.596;10.166;2022-12-07T08:48:36;1.90;99.90
16172;DHT22;8192;53.596;10.166;2022-12-07T08:51:04;2.00;99.90
16172;DHT22;8192;53.596;10.166;2022-12-07T08:53:33;2.00;99.90
16172;DHT22;8192;53.596;10.166;2022-12-07T08:56:01;2.10;99.90
16172;DHT22;8192;53.596;10.166;2022-12-07T09:01:42;2.20;99.90
16172;DHT22;8192;53.596;10.166;2022-12-07T09:04:09;2.30;99.90
16172;DHT22;8192;53.596;10.166;2022-12-07T09:06:36;2.30;99.90
16172;DHT22;8192;53.596;10.166;2022-12-07T09:12:29;2.40;99.90
16172;DHT22;8192;53.596;10.166;2022-12-07T09:14:56;2.50;99.90
16172;DHT22;8192;53.596;10.166;2022-12-07T09:17:23;2.60;99.90
16172;DHT22;8192;53.596;10.166;2022-12-07T09:19:51;2.60;99.90
16172;DHT22;8192;53.596;10.166;2022-12-07T09:22:18;2.70;99.90
16172;DHT22;8192;53.596;10.166;2022-12-07T09:24:46;2.80;99.90
16172;DHT22;8192;53.596;10.166;2022-12-07T09:27:15;2.80;99.90
16172;DHT22;8192;53.596;10.166;2022-12-07T09:29:45;2.80;99.90
16172;DHT22;8192;53.596;10.166;2022-12-07T09:32:13;2.90;99.90
16172;DHT22;8192;53.596;10.166;2022-12-07T09:34:40;2.90;99.90
16172;DHT22;8192;53.596;10.166;2022-12-07T09:37:07;3.00;99.90
16172;DHT22;8192;53.596;10.166;2022-12-07T09:39:37;3.00;99.90
16172;DHT22;8192;53.596;10.166;2022-12-07T09:42:06;3.10;99.90
16172;DHT22;8192;53.596;10.166;2022-12-07T09:44:36;3.10;99.90
16172;DHT22;8192;53.596;10.166;2022-12-07T09:47:05;3.30;99.90
16172;DHT22;8192;53.596;10.166;2022-12-07T09:49:33;3.20;99.90
16172;DHT22;8192;53.596;10.166;2022-12-07T09:52:02;3.30;99.90
16172;DHT22;8192;53.596;10.166;2022-12-07T09:57:53;3.40;99.90
16172;DHT22;8192;53.596;10.166;2022-12-07T10:00:22;3.50;99.90
16172;DHT22;8192;53.596;10.166;2022-12-07T10:02:55;3.50;99.90
16172;DHT22;8192;53.596;10.166;2022-12-07T10:05:26;3.50;99.90
16172;DHT22;8192;53.596;10.166;2022-12-07T10:11:16;3.70;99.90
16172;DHT22;8192;53.596;10.166;2022-12-07T10:17:29;3.70;99.90
16172;DHT22;8192;53.596;10.166;2022-12-07T10:20:14;3.70;99.90
16172;DHT22;8192;53.596;10.166;2022-12-07T10:22:55;3.70;99.90
16172;DHT22;8192;53.596;10.166;2022-12-07T10:28:44;3.90;99.90
16172;DHT22;8192;53.596;10.166;2022-12-07T10:31:16;3.90;99.90
16172;DHT22;8192;53.596;10.166;2022-12-07T10:33:50;3.90;99.90
16172;DHT22;8192;53.596;10.166;2022-12-07T10:39:44;4.00;99.90
16172;DHT22;8192;53.596;10.166;2022-12-07T10:42:19;3.90;99.90
16172;DHT22;8192;53.596;10.166;2022-12-07T10:44:47;4.00;99.90
16172;DHT22;8192;53.596;10.166;2022-12-07T10:47:25;4.00;99.90
16172;DHT22;8192;53.596;10.166;2022-12-07T10:50:07;4.00;99.90
16172;DHT22;8192;53.596;10.166;2022-12-07T10:55:41;3.90;99.90
16172;DHT22;8192;53.596;10.166;2022-12-07T10:58:24;3.80;99.90
16172;DHT22;8192;53.596;10.166;2022-12-07T11:01:10;3.80;99.90
16172;DHT22;8192;53.596;10.166;2022-12-07T11:03:52;3.80;99.90
16172;DHT22;8192;53.596;10.166;2022-12-07T11:06:29;3.80;99.90
16172;DHT22;8192;53.596;10.166;2022-12-07T11:12:08;3.90;99.90
16172;DHT22;8192;53.596;10.166;2022-12-07T11:18:04;4.00;99.90
16172;DHT22;8192;53.596;10.166;2022-12-07T11:20:39;4.00;99.90
16172;DHT22;8192;53.596;10.166;2022-12-07T11:23:16;4.00;99.90
16172;DHT22;8192;53.596;10.166;2022-12-07T11:25:52;3.90;99.90
16172;DHT22;8192;53.596;10.166;2022-12-07T11:28:34;4.00;99.90
16172;DHT22;8192;53.596;10.166;2022-12-07T11:31:13;4.00;99.90
16172;DHT22;8192;53.596;10.166;2022-12-07T11:33:49;4.00;99.90
16172;DHT22;8192;53.596;10.166;2022-12-07T11:36:33;4.00;99.90
16172;DHT22;8192;53.596;10.166;2022-12-07T11:39:04;4.00;99.90
16172;DHT22;8192;53.596;10.166;2022-12-07T11:41:36;4.00;99.90
16172;DHT22;8192;53.596;10.166;2022-12-07T11:44:11;4.00;99.90
16172;DHT22;8192;53.596;10.166;2022-12-07T11:46:48;4.00;99.90
16172;DHT22;8192;53.596;10.166;2022-12-07T11:49:23;4.00;99.90
16172;DHT22;8192;53.596;10.166;2022-12-07T11:51:58;4.00;99.90
16172;DHT22;8192;53.596;10.166;2022-12-07T11:54:29;4.00;99.90
16172;DHT22;8192;53.596;10.166;2022-12-07T11:57:04;4.00;99.90
16172;DHT22;8192;53.596;10.166;2022-12-07T11:59:40;4.00;99.90
16172;DHT22;8192;53.596;10.166;2022-12-07T12:02:14;4.10;99.90
16172;DHT22;8192;53.596;10.166;2022-12-07T12:05:16;4.10;99.90
16172;DHT22;8192;53.596;10.166;2022-12-07T12:07:45;4.10;99.90
16172;DHT22;8192;53.596;10.166;2022-12-07T12:10:19;4.10;99.90
16172;DHT22;8192;53.596;10.166;2022-12-07T12:13:16;4.20;99.90
16172;DHT22;8192;53.596;10.166;2022-12-07T12:15:59;4.20;99.90
16172;DHT22;8192;53.596;10.166;2022-12-07T12:18:45;4.10;99.90
16172;DHT22;8192;53.596;10.166;2022-12-07T12:21:32;4.10;99.90
16172;DHT22;8192;53.596;10.166;2022-12-07T12:24:03;4.10;99.90
16172;DHT22;8192;53.596;10.166;2022-12-07T12:26:34;4.10;99.90
16172;DHT22;8192;53.596;10.166;2022-12-07T12:29:05;4.00;99.90
16172;DHT22;8192;53.596;10.166;2022-12-07T12:31:41;4.00;99.90
16172;DHT22;8192;53.596;10.166;2022-12-07T12:37:44;4.00;99.90
16172;DHT22;8192;53.596;10.166;2022-12-07T12:43:42;4.10;99.90
16172;DHT22;8192;53.596;10.166;2022-12-07T12:53:14;4.20;99.90
16172;DHT22;8192;53.596;10.166;2022-12-07T12:56:08;4.20;99.90
16172;DHT22;8192;53.596;10.166;2022-12-07T12:58:42;4.20;99.90
16172;DHT22;8192;53.596;10.166;2022-12-07T13:01:45;4.10;99.90
16172;DHT22;8192;53.596;10.166;2022-12-07T13:04:38;4.10;99.90
16172;DHT22;8192;53.596;10.166;2022-12-07T13:10:21;4.20;99.90
16172;DHT22;8192;53.596;10.166;2022-12-07T13:12:57;4.20;99.90
16172;DHT22;8192;53.596;10.166;2022-12-07T13:18:35;4.20;99.90
16172;DHT22;8192;53.596;10.166;2022-12-07T13:21:38;4.20;99.90
16172;DHT22;8192;53.596;10.166;2022-12-07T13:23:58;4.10;99.90
16172;DHT22;8192;53.596;10.166;2022-12-07T13:26:36;4.10;99.90
16172;DHT22;8192;53.596;10.166;2022-12-07T13:29:11;4.10;99.90
16172;DHT22;8192;53.596;10.166;2022-12-07T13:31:40;4.10;99.90
16172;DHT22;8192;53.596;10.166;2022-12-07T13:34:30;4.10;99.90
16172;DHT22;8192;53.596;10.166;2022-12-07T13:36:59;4.10;99.90
16172;DHT22;8192;53.596;10.166;2022-12-07T13:39:28;4.20;99.90
16172;DHT22;8192;53.596;10.166;2022-12-07T13:41:57;4.20;99.90
16172;DHT22;8192;53.596;10.166;2022-12-07T13:44:27;4.20;99.90
16172;DHT22;8192;53.596;10.166;2022-12-07T13:46:59;4.10;99.90
16172;DHT22;8192;53.596;10.166;2022-12-07T13:49:32;4.10;99.90
16172;DHT22;8192;53.596;10.166;2022-12-07T13:52:15;4.00;99.90
16172;DHT22;8192;53.596;10.166;2022-12-07T13:54:49;4.00;99.90
16172;DHT22;8192;53.596;10.166;2022-12-07T13:57:22;4.00;99.90
16172;DHT22;8192;53.596;10.166;2022-12-07T13:59:51;4.00;99.90
16172;DHT22;8192;53.596;10.166;2022-12-07T14:02:21;3.90;99.90
16172;DHT22;8192;53.596;10.166;2022-12-07T14:04:49;3.90;99.90
16172;DHT22;8192;53.596;10.166;2022-12-07T14:10:54;3.70;99.90
16172;DHT22;8192;53.596;10.166;2022-12-07T14:13:30;3.70;99.90
16172;DHT22;8192;53.596;10.166;2022-12-07T14:19:41;3.50;99.90
16172;DHT22;8192;53.596;10.166;2022-12-07T14:25:32;3.30;99.90
16172;DHT22;8192;53.596;10.166;2022-12-07T14:31:24;3.10;99.90
16172;DHT22;8192;53.596;10.166;2022-12-07T14:33:52;3.10;99.90
16172;DHT22;8192;53.596;10.166;2022-12-07T14:36:19;3.00;99.90
16172;DHT22;8192;53.596;10.166;2022-12-07T14:38:47;3.00;99.90
16172;DHT22;8192;53.596;10.166;2022-12-07T14:41:18;2.90;99.90
16172;DHT22;8192;53.596;10.166;2022-12-07T14:44:09;2.90;99.90
16172;DHT22;8192;53.596;10.166;2022-12-07T14:46:42;2.90;99.90
16172;DHT22;8192;53.596;10.166;2022-12-07T14:49:11;2.80;99.90
16172;DHT22;8192;53.596;10.166;2022-12-07T14:51:39;2.80;99.90
16172;DHT22;8192;53.596;10.166;2022-12-07T14:54:14;2.70;99.90
16172;DHT22;8192;53.596;10.166;2022-12-07T14:56:43;2.70;99.90
16172;DHT22;8192;53.596;10.166;2022-12-07T14:59:11;2.60;99.90
16172;DHT22;8192;53.596;10.166;2022-12-07T15:01:41;2.40;99.90
16172;DHT22;8192;53.596;10.166;2022-12-07T15:04:09;2.30;99.90
16172;DHT22;8192;53.596;10.166;2022-12-07T15:06:37;2.30;99.90
16172;DHT22;8192;53.596;10.166;2022-12-07T15:09:04;2.20;99.90
16172;DHT22;8192;53.596;10.166;2022-12-07T15:11:32;2.10;99.90
16172;DHT22;8192;53.596;10.166;2022-12-07T15:13:59;2.00;99.90
16172;DHT22;8192;53.596;10.166;2022-12-07T15:16:42;1.90;99.90
16172;DHT22;8192;53.596;10.166;2022-12-07T15:19:12;1.80;99.90
16172;DHT22;8192;53.596;10.166;2022-12-07T15:21:41;1.70;99.90
16172;DHT22;8192;53.596;10.166;2022-12-07T15:24:10;1.60;99.90
16172;DHT22;8192;53.596;10.166;2022-12-07T15:29:59;1.80;99.90
16172;DHT22;8192;53.596;10.166;2022-12-07T15:32:28;1.70;99.90
16172;DHT22;8192;53.596;10.166;2022-12-07T15:34:56;1.60;99.90
16172;DHT22;8192;53.596;10.166;2022-12-07T15:37:23;1.50;99.90
16172;DHT22;8192;53.596;10.166;2022-12-07T15:39:51;1.40;99.90
16172;DHT22;8192;53.596;10.166;2022-12-07T15:42:19;1.30;99.90
16172;DHT22;8192;53.596;10.166;2022-12-07T15:44:46;1.20;99.90
16172;DHT22;8192;53.596;10.166;2022-12-07T15:47:34;1.20;99.90
16172;DHT22;8192;53.596;10.166;2022-12-07T15:50:02;1.00;99.90
16172;DHT22;8192;53.596;10.166;2022-12-07T15:52:29;0.80;99.90
16172;DHT22;8192;53.596;10.166;2022-12-07T15:54:57;0.70;99.90
16172;DHT22;8192;53.596;10.166;2022-12-07T15:57:25;0.60;99.90
16172;DHT22;8192;53.596;10.166;2022-12-07T16:03:19;0.80;99.90
16172;DHT22;8192;53.596;10.166;2022-12-07T16:05:49;0.70;99.90
16172;DHT22;8192;53.596;10.166;2022-12-07T16:08:16;0.70;99.90
16172;DHT22;8192;53.596;10.166;2022-12-07T16:14:05;0.50;99.90
16172;DHT22;8192;53.596;10.166;2022-12-07T16:19:56;0.00;99.90
16172;DHT22;8192;53.596;10.166;2022-12-07T16:22:27;-0.40;99.90
16172;DHT22;8192;53.596;10.166;2022-12-07T16:24:55;-0.50;99.90
16172;DHT22;8192;53.596;10.166;2022-12-07T16:27:22;-0.60;99.90
16172;DHT22;8192;53.596;10.166;2022-12-07T16:29:50;-0.60;99.90
16172;DHT22;8192;53.596;10.166;2022-12-07T16:32:18;-0.60;99.90
16172;DHT22;8192;53.596;10.166;2022-12-07T16:38:09;-0.80;99.90
16172;DHT22;8192;53.596;10.166;2022-12-07T16:40:37;-0.80;99.90
16172;DHT22;8192;53.596;10.166;2022-12-07T16:43:04;-0.80;99.90
16172;DHT22;8192;53.596;10.166;2022-12-07T16:45:31;-0.80;99.90
16172;DHT22;8192;53.596;10.166;2022-12-07T16:51:21;-1.00;99.90
16172;DHT22;8192;53.596;10.166;2022-12-07T16:53:53;-1.10;99.90
16172;DHT22;8192;53.596;10.166;2022-12-07T16:56:20;-1.20;99.90
16172;DHT22;8192;53.596;10.166;2022-12-07T16:58:49;-1.30;99.90
16172;DHT22;8192;53.596;10.166;2022-12-07T17:01:18;-1.30;99.90
16172;DHT22;8192;53.596;10.166;2022-12-07T17:03:47;-1.40;99.90
16172;DHT22;8192;53.596;10.166;2022-12-07T17:06:15;-1.40;99.90
16172;DHT22;8192;53.596;10.166;2022-12-07T17:08:43;-1.40;99.90
16172;DHT22;8192;53.596;10.166;2022-12-07T17:14:35;-1.50;99.90
16172;DHT22;8192;53.596;10.166;2022-12-07T17:17:20;-1.40;99.90
16172;DHT22;8192;53.596;10.166;2022-12-07T17:19:47;-1.40;99.90
16172;DHT22;8192;53.596;10.166;2022-12-07T17:22:14;-1.40;99.90
16172;DHT22;8192;53.596;10.166;2022-12-07T17:24:41;-1.50;99.90
16172;DHT22;8192;53.596;10.166;2022-12-07T17:27:09;-1.50;99.90
16172;DHT22;8192;53.596;10.166;2022-12-07T17:29:38;-1.50;99.90
16172;DHT22;8192;53.596;10.166;2022-12-07T17:32:06;-1.40;99.90
16172;DHT22;8192;53.596;10.166;2022-12-07T17:34:36;-1.50;99.90
16172;DHT22;8192;53.596;10.166;2022-12-07T17:37:06;-1.50;99.90
16172;DHT22;8192;53.596;10.166;2022-12-07T17:39:36;-1.60;99.90
16172;DHT22;8192;53.596;10.166;2022-12-07T17:42:04;-1.60;99.90
16172;DHT22;8192;53.596;10.166;2022-12-07T17:44:57;-1.60;99.90
16172;DHT22;8192;53.596;10.166;2022-12-07T17:50:59;-1.70;99.90
16172;DHT22;8192;53.596;10.166;2022-12-07T17:53:58;-1.80;99.90
16172;DHT22;8192;53.596;10.166;2022-12-07T17:56:28;-1.90;99.90
16172;DHT22;8192;53.596;10.166;2022-12-07T17:58:58;-1.90;99.90
16172;DHT22;8192;53.596;10.166;2022-12-07T18:01:27;-2.00;99.90
16172;DHT22;8192;53.596;10.166;2022-12-07T18:03:55;-2.00;99.90
16172;DHT22;8192;53.596;10.166;2022-12-07T18:06:29;-2.10;99.90
16172;DHT22;8192;53.596;10.166;2022-12-07T18:08:57;-2.10;99.90
16172;DHT22;8192;53.596;10.166;2022-12-07T18:11:25;-2.10;99.90
16172;DHT22;8192;53.596;10.166;2022-12-07T18:13:53;-2.00;99.90
16172;DHT22;8192;53.596;10.166;2022-12-07T18:16:23;-1.80;99.90